CMA CGM St. Laurent — 2IOA3 — position and weather

sailwx.info

Track history (hours):
 
Tides and Currents Weather Stations Pressure Air Temp Water Temp Dewpoint Dewpoint Depression Visibility Wind Speed Wind Dir Waves Ship Positions

CMA CGM St. Laurent

Last reported at 2018-Jun-20 21:46 UTC. Time now 2018-Jun-21 02:57 UTC.
Position N 49°43' W 003°57'.

Length 190 m; draft 9.3 m.

Type: Ship. MMSI: 235111365.

Date/timePositionNaut miles runAvg speedWind from/ knotsBaromVisibWave heightAir tempDewpointWater temp
2018-Jun-20 21:46N 49°43' W 003°57'617.5
2018-Jun-20 21:25N 49°46' W 003°48'717.8
2018-Jun-20 21:00N 49°49' W 003°38'918.2
2018-Jun-20 20:30N 49°52' W 003°24'918.7
2018-Jun-20 20:00N 49°55' W 003°10'1119.3
2018-Jun-20 19:27N 49°57' W 002°54'919.7
2018-Jun-20 18:59N 49°60' W 002°40'2819.5
2018-Jun-20 17:32N 50°02' W 001°57'018.8
2018-Jun-20 17:30N 50°02' W 001°56'2417.9
2018-Jun-20 16:09N 49°55' W 001°20'817.2
2018-Jun-20 15:40N 49°51' W 001°09'417.1
2018-Jun-20 15:28N 49°49' W 001°04'816.6
2018-Jun-20 15:00N 49°46' W 000°54'612.0
2018-Jun-20 14:30N 49°43' W 000°46'611.5
2018-Jun-20 14:00N 49°41' W 000°37'611.7
2018-Jun-20 13:30N 49°38' W 000°29'611.7
2018-Jun-20 13:00N 49°36' W 000°21'612.2
2018-Jun-20 12:30N 49°33' W 000°12'612.5
2018-Jun-20 12:00N 49°30' W 000°04'611.3
2018-Jun-20 11:30N 49°29' E 000°04'3 6.3
2018-Jun-20 11:00N 49°27' E 000°09'1 2.2
2018-Jun-20 10:28N 49°27' E 000°10'0 0.0
2018-Jun-20 09:58N 49°27' E 000°10'0 0.0
2018-Jun-20 09:28N 49°27' E 000°10'0 0.0
2018-Jun-20 08:58N 49°27' E 000°10'0 0.0
2018-Jun-20 08:28N 49°27' E 000°10'0 0.0
2018-Jun-20 07:58N 49°27' E 000°10'0 0.0
2018-Jun-20 07:28N 49°27' E 000°10'0 0.0
2018-Jun-20 06:58N 49°27' E 000°10'0 0.0
2018-Jun-20 06:28N 49°27' E 000°10'0 0.0
2018-Jun-20 05:58N 49°27' E 000°10'0 0.0
2018-Jun-20 05:28N 49°27' E 000°10'0 0.0
2018-Jun-20 04:58N 49°27' E 000°10'0 0.0
2018-Jun-20 04:28N 49°27' E 000°10'0 0.0
2018-Jun-20 03:58N 49°27' E 000°10'0 0.0
2018-Jun-20 03:28N 49°27' E 000°10'0 0.0
2018-Jun-20 02:58N 49°27' E 000°10'0 0.0
2018-Jun-20 02:28N 49°27' E 000°10'0 0.0
2018-Jun-20 01:58N 49°27' E 000°10'0 0.0
2018-Jun-20 01:28N 49°27' E 000°10'0 0.0
2018-Jun-20 00:58N 49°27' E 000°10'0 0.0
2018-Jun-20 00:28N 49°27' E 000°10'0 0.0
2018-Jun-19 23:58N 49°27' E 000°10'0 0.0
2018-Jun-19 23:28N 49°27' E 000°10'0 0.0
2018-Jun-19 22:55N 49°27' E 000°10'0 0.0
2018-Jun-19 22:28N 49°27' E 000°10'0 0.0
2018-Jun-19 21:58N 49°27' E 000°10'0 0.0
2018-Jun-19 21:28N 49°27' E 000°10'0 0.0
2018-Jun-19 20:58N 49°27' E 000°10'0 0.0
2018-Jun-19 20:28N 49°27' E 000°10'0 0.0
2018-Jun-19 19:58N 49°27' E 000°10'0 0.0
2018-Jun-19 19:28N 49°27' E 000°10'0 0.0
2018-Jun-19 18:58N 49°27' E 000°10'0 0.0
2018-Jun-19 18:28N 49°27' E 000°10'0 0.0
2018-Jun-19 17:58N 49°27' E 000°10'0 0.0
2018-Jun-19 17:28N 49°27' E 000°10'0 0.0
2018-Jun-19 16:58N 49°27' E 000°10'0 0.0
2018-Jun-19 16:28N 49°27' E 000°10'0 0.0
2018-Jun-19 15:58N 49°27' E 000°10'0 0.0
2018-Jun-19 15:28N 49°27' E 000°10'0 0.0
2018-Jun-19 14:58N 49°27' E 000°10'0 0.0
2018-Jun-19 14:28N 49°27' E 000°10'0 0.0
2018-Jun-19 13:58N 49°27' E 000°10'0 0.0
2018-Jun-19 13:28N 49°27' E 000°10'0 0.0
2018-Jun-19 12:58N 49°27' E 000°10'0 0.0
2018-Jun-19 12:28N 49°27' E 000°10'0 0.0
2018-Jun-19 11:58N 49°27' E 000°10'0 0.0
2018-Jun-19 11:28N 49°27' E 000°10'0 0.0
2018-Jun-19 11:00N 49°27' E 000°10'1 1.5
2018-Jun-19 10:31N 49°27' E 000°09'4 8.0
2018-Jun-19 10:00N 49°29' E 000°04'613.0
2018-Jun-19 09:30N 49°31' W 000°06'4 7.8
2018-Jun-19 09:00N 49°33' W 000°11'3 6.8
2018-Jun-19 08:30N 49°37' W 000°11'3 6.7
2018-Jun-19 08:00N 49°40' W 000°12'5 9.1
2018-Jun-19 07:30N 49°45' W 000°12'5 9.3
2018-Jun-19 07:00N 49°49' W 000°13'510.0
2018-Jun-19 06:30N 49°54' W 000°12'612.1
2018-Jun-19 06:00N 50°00' W 000°11'612.3
2018-Jun-19 05:30N 50°06' W 000°10'612.2
2018-Jun-19 05:00N 50°12' W 000°09'612.1
2018-Jun-19 04:30N 50°18' W 000°08'712.2
2018-Jun-19 03:58N 50°25' W 000°06'911.9
2018-Jun-19 03:11N 50°29' E 000°07'312.0
2018-Jun-19 02:57N 50°30' E 000°11'511.8
2018-Jun-19 02:30N 50°31' E 000°19'611.5
2018-Jun-19 02:00N 50°33' E 000°27'611.8
2018-Jun-19 01:30N 50°35' E 000°36'611.3
2018-Jun-19 01:00N 50°39' E 000°44'611.6
2018-Jun-19 00:30N 50°42' E 000°51'611.4
2018-Jun-19 00:00N 50°45' E 000°59'611.6
2018-Jun-18 23:30N 50°48' E 001°06'612.3
2018-Jun-18 23:00N 50°52' E 001°14'713.0
2018-Jun-18 22:30N 50°57' E 001°21'713.3
2018-Jun-18 22:00N 51°01' E 001°28'713.0
2018-Jun-18 21:30N 51°06' E 001°35'612.5
2018-Jun-18 21:00N 51°11' E 001°42'612.2
2018-Jun-18 20:30N 51°16' E 001°47'612.6
2018-Jun-18 20:00N 51°21' E 001°53'713.2
2018-Jun-18 19:30N 51°26' E 001°59'612.7
2018-Jun-18 19:00N 51°31' E 002°06'612.3
2018-Jun-18 18:30N 51°36' E 002°12'612.1
2018-Jun-18 18:00N 51°41' E 002°18'611.8
2018-Jun-18 17:30N 51°46' E 002°24'611.8
2018-Jun-18 17:00N 51°50' E 002°30'510.3
2018-Jun-18 16:30N 51°54' E 002°36'510.4
2018-Jun-18 15:59N 51°59' E 002°40'810.6
2018-Jun-18 15:13N 52°02' E 002°52'211.8
2018-Jun-18 15:00N 52°02' E 002°56'612.1
2018-Jun-18 14:30N 52°03' E 003°06'712.5
2018-Jun-18 13:58N 52°03' E 003°17'612.7
2018-Jun-18 13:28N 52°03' E 003°27'613.1
2018-Jun-18 13:00N 52°03' E 003°37'713.0
2018-Jun-18 12:30N 52°03' E 003°48'510.1
2018-Jun-18 12:00N 52°02' E 003°56'713.0
2018-Jun-18 11:30N 51°59' E 004°05'612.3
2018-Jun-18 11:00N 51°56' E 004°13'510.2
2018-Jun-18 10:31N 51°54' E 004°21'3 6.8
2018-Jun-18 10:00N 51°54' E 004°26'0 0.5
2018-Jun-18 09:30N 51°54' E 004°26'0 0.0
2018-Jun-18 09:00N 51°54' E 004°26'0 0.0
2018-Jun-18 08:30N 51°54' E 004°26'0 0.0
2018-Jun-18 08:00N 51°54' E 004°26'0 0.0
2018-Jun-18 07:30N 51°54' E 004°26'0 0.0
2018-Jun-18 07:00N 51°54' E 004°26'0 0.0
2018-Jun-18 06:30N 51°54' E 004°26'0 0.0
2018-Jun-18 06:00N 51°54' E 004°26'0 0.0
2018-Jun-18 05:30N 51°54' E 004°26'0 0.0
2018-Jun-18 05:00N 51°54' E 004°26'0 0.0
2018-Jun-18 04:30N 51°54' E 004°26'0 0.0
2018-Jun-18 04:00N 51°54' E 004°26'0 0.0
2018-Jun-18 03:30N 51°54' E 004°26'0 0.0
2018-Jun-18 03:00N 51°54' E 004°26'0 0.0
2018-Jun-18 02:30N 51°54' E 004°26'0 0.0
2018-Jun-18 02:00N 51°54' E 004°26'0 0.0
2018-Jun-18 01:30N 51°54' E 004°26'0 0.0
2018-Jun-18 01:00N 51°54' E 004°26'0 0.0
2018-Jun-18 00:30N 51°54' E 004°26'0 0.0
2018-Jun-18 00:00N 51°54' E 004°26'0 0.0
2018-Jun-17 23:30N 51°54' E 004°26'0 0.0
2018-Jun-17 23:00N 51°54' E 004°26'0 0.0
2018-Jun-17 22:30N 51°54' E 004°26'0 0.0
2018-Jun-17 22:00N 51°54' E 004°26'0 0.0
2018-Jun-17 21:00N 51°54' E 004°26'0 0.0
2018-Jun-17 20:30N 51°54' E 004°26'0 0.0
2018-Jun-17 20:00N 51°54' E 004°26'0 0.0
2018-Jun-17 19:30N 51°54' E 004°26'0 0.0
2018-Jun-17 19:00N 51°54' E 004°26'0 0.0
2018-Jun-17 18:30N 51°54' E 004°26'0 0.0
2018-Jun-17 18:00N 51°54' E 004°26'0 0.0
2018-Jun-17 17:30N 51°54' E 004°26'0 0.0
2018-Jun-17 17:00N 51°54' E 004°26'0 0.0
2018-Jun-17 16:30N 51°54' E 004°26'0 0.0
2018-Jun-17 16:00N 51°54' E 004°26'0 0.0
2018-Jun-17 15:30N 51°54' E 004°26'0 0.0
2018-Jun-17 15:00N 51°54' E 004°26'0 0.0
2018-Jun-17 14:30N 51°54' E 004°26'0 0.0
2018-Jun-17 14:00N 51°54' E 004°26'0 0.0
2018-Jun-17 13:30N 51°54' E 004°26'0 0.0
2018-Jun-17 13:00N 51°54' E 004°26'0 0.0
2018-Jun-17 12:30N 51°54' E 004°26'0 0.0
2018-Jun-17 12:00N 51°54' E 004°26'0 0.0
2018-Jun-17 11:30N 51°54' E 004°26'0 0.0
2018-Jun-17 11:00N 51°54' E 004°26'0 0.0
2018-Jun-17 10:30N 51°54' E 004°26'0 0.0
2018-Jun-17 10:00N 51°54' E 004°26'0 0.0
2018-Jun-17 09:30N 51°54' E 004°26'0 0.0
2018-Jun-17 09:00N 51°54' E 004°26'0 0.0
2018-Jun-17 08:30N 51°54' E 004°26'1 1.0
2018-Jun-17 08:00N 51°54' E 004°26'4 7.8
2018-Jun-17 07:30N 51°54' E 004°20'510.0
2018-Jun-17 07:00N 51°56' E 004°13'611.5
2018-Jun-17 06:30N 51°59' E 004°05'713.6
2018-Jun-17 06:01N 51°60' E 003°54'510.5
2018-Jun-17 05:30N 51°59' E 003°45'4 7.1
2018-Jun-17 05:00N 51°58' E 003°40'4 7.3
2018-Jun-17 04:30N 51°57' E 003°34'510.3
2018-Jun-17 04:00N 51°55' E 003°26'611.7
2018-Jun-17 03:30N 51°54' E 003°17'714.6
2018-Jun-17 03:00N 51°52' E 003°06'1115.2
2018-Jun-17 02:16N 51°49' E 002°48'517.1
2018-Jun-17 02:00N 51°49' E 002°41'918.3
2018-Jun-17 01:29N 51°50' E 002°26'1018.6
2018-Jun-17 00:58N 51°46' E 002°12'918.0
2018-Jun-17 00:30N 51°41' E 002°01'918.2
2018-Jun-17 00:01N 51°35' E 001°49'917.4
2018-Jun-16 23:31N 51°31' E 001°38'714.3
2018-Jun-16 23:01N 51°26' E 001°29'510.6
2018-Jun-16 22:30N 51°31' E 001°27'612.3
2018-Jun-16 22:00N 51°36' E 001°21'611.3
2018-Jun-16 21:30N 51°34' E 001°12'917.1
2018-Jun-16 21:00N 51°30' E 001°01'917.3
2018-Jun-16 20:31N 51°29' E 000°47'815.9
2018-Jun-16 20:01N 51°30' E 000°34'2 4.9
2018-Jun-16 19:31N 51°30' E 000°30'0 0.0
2018-Jun-16 19:01N 51°30' E 000°30'0 0.0
2018-Jun-16 18:31N 51°30' E 000°30'0 0.0
2018-Jun-16 18:01N 51°30' E 000°30'0 0.0
2018-Jun-16 17:30N 51°30' E 000°30'0 0.0
2018-Jun-16 17:01N 51°30' E 000°30'0 0.0
2018-Jun-16 16:31N 51°30' E 000°30'0 0.0
2018-Jun-16 16:00N 51°30' E 000°30'0 0.0
2018-Jun-16 15:31N 51°30' E 000°30'0 0.0
2018-Jun-16 15:01N 51°30' E 000°30'0 0.0
2018-Jun-16 14:31N 51°30' E 000°30'0 0.0
2018-Jun-16 14:01N 51°30' E 000°30'0 0.0
2018-Jun-16 13:31N 51°30' E 000°30'0 0.0
2018-Jun-16 13:01N 51°30' E 000°30'0 0.0
2018-Jun-16 12:30N 51°30' E 000°30'0 0.0
2018-Jun-16 12:00N 51°30' E 000°30'0 0.0
2018-Jun-16 11:30N 51°30' E 000°30'0 0.0
2018-Jun-16 11:00N 51°30' E 000°30'0 0.7
2018-Jun-16 10:30N 51°30' E 000°31'510.1
2018-Jun-16 10:00N 51°30' E 000°39'816.3
2018-Jun-16 09:31N 51°30' E 000°52'917.3
2018-Jun-16 09:01N 51°31' E 001°05'917.6
2018-Jun-16 08:30N 51°36' E 001°18'4 8.4
2018-Jun-16 08:00N 51°34' E 001°24'510.2
2018-Jun-16 07:30N 51°30' E 001°28'611.7
2018-Jun-16 07:00N 51°25' E 001°31'5 9.6
2018-Jun-16 06:30N 51°21' E 001°35'510.8
2018-Jun-16 06:00N 51°16' E 001°39'1 2.7
2018-Jun-16 05:30N 51°15' E 001°41'1 1.3
2018-Jun-16 05:00N 51°16' E 001°41'1 1.1
2018-Jun-16 04:30N 51°15' E 001°41'1 2.4
2018-Jun-16 04:00N 51°16' E 001°39'1 3.0
2018-Jun-16 03:30N 51°17' E 001°39'1 2.8
2018-Jun-16 03:00N 51°19' E 001°40'2 3.5
2018-Jun-16 02:30N 51°17' E 001°39'2 4.8
2018-Jun-16 02:00N 51°15' E 001°39'3 6.0
2018-Jun-16 01:30N 51°12' E 001°40'3 5.5
2018-Jun-16 01:00N 51°10' E 001°43'3 6.1
2018-Jun-16 00:30N 51°07' E 001°41'4 8.5
2018-Jun-16 00:00N 51°04' E 001°36'4 8.4
2018-Jun-15 23:30N 51°01' E 001°32'3 6.4
2018-Jun-15 23:00N 50°58' E 001°28'3 5.5
2018-Jun-15 22:30N 50°57' E 001°25'611.4
2018-Jun-15 22:01N 50°51' E 001°22'815.2
2018-Jun-15 21:31N 50°44' E 001°20'816.2
2018-Jun-15 21:00N 50°38' E 001°11'816.2
2018-Jun-15 20:30N 50°33' E 001°02'816.2
2018-Jun-15 20:00N 50°29' E 000°50'917.0
2018-Jun-15 19:29N 50°27' E 000°37'816.7
2018-Jun-15 19:00N 50°25' E 000°24'816.4
2018-Jun-15 18:30N 50°23' E 000°12'816.1
2018-Jun-15 18:01N 50°21' W 000°00'816.0
2018-Jun-15 17:30N 50°19' W 000°13'816.7
2018-Jun-15 17:01N 50°17' W 000°25'816.9
2018-Jun-15 16:30N 50°15' W 000°38'816.3
2018-Jun-15 16:00N 50°12' W 000°50'815.9
2018-Jun-15 15:30N 50°10' W 001°02'815.6
2018-Jun-15 15:00N 50°08' W 001°14'815.2
2018-Jun-15 14:30N 50°06' W 001°25'612.5
2018-Jun-15 14:00N 50°03' W 001°34'510.2
2018-Jun-15 13:30N 50°02' W 001°41'714.2
2018-Jun-15 13:00N 50°00' W 001°52'815.1
2018-Jun-15 12:30N 49°58' W 002°04'815.2
2018-Jun-15 12:00N 49°56' W 002°15'815.4
2018-Jun-15 11:30N 49°53' W 002°26'815.6
2018-Jun-15 11:00N 49°50' W 002°37'915.6
2018-Jun-15 10:24N 49°48' W 002°51'615.4
2018-Jun-15 10:00N 49°46' W 003°00'815.6
2018-Jun-15 09:30N 49°42' W 003°11'915.6
2018-Jun-15 08:57N 49°38' W 003°22'7715.8
2018-Jun-15 04:05N 48°59' W 005°04'117.3
2018-Jun-15 04:00N 48°59' W 005°06'917.2
2018-Jun-15 03:30N 48°55' W 005°18'917.0
2018-Jun-15 03:00N 48°50' W 005°28'5116.5
2018-Jun-14 23:53N 48°05' W 006°06'717.8
2018-Jun-14 23:30N 47°59' W 006°10'44318.2
2018-Jun-13 23:10N 41°04' W 009°49'10317.5
2018-Jun-13 17:16N 39°21' W 009°51'417.7
2018-Jun-13 17:00N 39°16' W 009°52'917.6
2018-Jun-13 16:30N 39°08' W 009°52'917.6
2018-Jun-13 16:00N 38°59' W 009°52'917.6
2018-Jun-13 15:30N 38°50' W 009°52'917.5
2018-Jun-13 15:00N 38°41' W 009°50'917.1
2018-Jun-13 14:30N 38°33' W 009°49'816.8
2018-Jun-13 14:00N 38°25' W 009°46'817.0
2018-Jun-13 13:30N 38°17' W 009°42'917.2
2018-Jun-13 13:00N 38°09' W 009°39'917.3
2018-Jun-13 12:30N 38°00' W 009°36'917.6
2018-Jun-13 12:00N 37°52' W 009°35'917.9
2018-Jun-13 11:30N 37°43' W 009°33'1618.0
2018-Jun-13 10:38N 37°28' W 009°28'717.4
2018-Jun-13 10:14N 37°21' W 009°26'1017.7
2018-Jun-13 09:41N 37°11' W 009°23'717.5
2018-Jun-13 09:18N 37°05' W 009°22'617.0
2018-Jun-13 08:57N 36°59' W 009°21'2716.6
2018-Jun-13 07:20N 36°41' W 008°55'718.0
2018-Jun-13 06:58N 36°39' W 008°48'1218.2
2018-Jun-13 06:19N 36°36' W 008°33'1318.2
2018-Jun-13 05:35N 36°32' W 008°18'218.2
2018-Jun-13 05:30N 36°31' W 008°16'13518.3
2018-Jun-12 22:06N 35°57' W 005°33'217.3
2018-Jun-12 22:00N 35°58' W 005°32'815.5
2018-Jun-12 21:30N 36°03' W 005°24'5 9.2
2018-Jun-12 21:00N 36°07' W 005°25'1 1.1
2018-Jun-12 20:30N 36°08' W 005°25'0 0.0
2018-Jun-12 19:57N 36°08' W 005°25'0 0.0
2018-Jun-12 19:30N 36°08' W 005°25'0 0.0
2018-Jun-12 18:57N 36°08' W 005°25'0 0.0
2018-Jun-12 18:30N 36°08' W 005°25'0 0.0
2018-Jun-12 18:00N 36°08' W 005°25'0 0.0
2018-Jun-12 17:30N 36°08' W 005°25'0 0.0
2018-Jun-12 17:00N 36°08' W 005°25'0 0.0
2018-Jun-12 16:30N 36°08' W 005°25'0 0.0
2018-Jun-12 16:00N 36°08' W 005°25'0 0.0
2018-Jun-12 15:27N 36°08' W 005°25'0 0.0
2018-Jun-12 15:00N 36°08' W 005°25'0 0.0
2018-Jun-12 14:30N 36°08' W 005°25'0 0.0
2018-Jun-12 13:57N 36°08' W 005°25'0 0.0
2018-Jun-12 13:30N 36°08' W 005°25'0 0.0
2018-Jun-12 13:00N 36°08' W 005°25'0 0.0
2018-Jun-12 12:24N 36°08' W 005°25'0 0.0
2018-Jun-12 12:00N 36°08' W 005°25'2 2.0
2018-Jun-12 10:46N 36°07' W 005°23'3 9.9
2018-Jun-12 10:31N 36°05' W 005°21'611.1
2018-Jun-12 10:00N 35°59' W 005°22'  
Track history (hours):
 
Tides and Currents Weather Stations Pressure Air Temp Water Temp Dewpoint Dewpoint Depression Visibility Wind Speed Wind Dir Waves Ship Positions

CMA CGM St. Laurent

Last reported at 2018-Jun-20 21:46 UTC. Time now 2018-Jun-21 02:57 UTC.
Position N 49°43' W 003°57'.

Length 190 m; draft 9.3 m.

Type: Ship. MMSI: 235111365.

Date/timePositionNaut miles runAvg speedWind from/ knotsBaromVisibWave heightAir tempDewpointWater temp
2018-Jun-20 21:46N 49°43' W 003°57'617.5
2018-Jun-20 21:25N 49°46' W 003°48'717.8
2018-Jun-20 21:00N 49°49' W 003°38'918.2
2018-Jun-20 20:30N 49°52' W 003°24'918.7
2018-Jun-20 20:00N 49°55' W 003°10'1119.3
2018-Jun-20 19:27N 49°57' W 002°54'919.7
2018-Jun-20 18:59N 49°60' W 002°40'2819.5
2018-Jun-20 17:32N 50°02' W 001°57'018.8
2018-Jun-20 17:30N 50°02' W 001°56'2417.9
2018-Jun-20 16:09N 49°55' W 001°20'817.2
2018-Jun-20 15:40N 49°51' W 001°09'417.1
2018-Jun-20 15:28N 49°49' W 001°04'816.6
2018-Jun-20 15:00N 49°46' W 000°54'612.0
2018-Jun-20 14:30N 49°43' W 000°46'611.5
2018-Jun-20 14:00N 49°41' W 000°37'611.7
2018-Jun-20 13:30N 49°38' W 000°29'611.7
2018-Jun-20 13:00N 49°36' W 000°21'612.2
2018-Jun-20 12:30N 49°33' W 000°12'612.5
2018-Jun-20 12:00N 49°30' W 000°04'611.3
2018-Jun-20 11:30N 49°29' E 000°04'3 6.3
2018-Jun-20 11:00N 49°27' E 000°09'1 2.2
2018-Jun-20 10:28N 49°27' E 000°10'0 0.0
2018-Jun-20 09:58N 49°27' E 000°10'0 0.0
2018-Jun-20 09:28N 49°27' E 000°10'0 0.0
2018-Jun-20 08:58N 49°27' E 000°10'0 0.0
2018-Jun-20 08:28N 49°27' E 000°10'0 0.0
2018-Jun-20 07:58N 49°27' E 000°10'0 0.0
2018-Jun-20 07:28N 49°27' E 000°10'0 0.0
2018-Jun-20 06:58N 49°27' E 000°10'0 0.0
2018-Jun-20 06:28N 49°27' E 000°10'0 0.0
2018-Jun-20 05:58N 49°27' E 000°10'0 0.0
2018-Jun-20 05:28N 49°27' E 000°10'0 0.0
2018-Jun-20 04:58N 49°27' E 000°10'0 0.0
2018-Jun-20 04:28N 49°27' E 000°10'0 0.0
2018-Jun-20 03:58N 49°27' E 000°10'0 0.0
2018-Jun-20 03:28N 49°27' E 000°10'0 0.0
2018-Jun-20 02:58N 49°27' E 000°10'0 0.0
2018-Jun-20 02:28N 49°27' E 000°10'0 0.0
2018-Jun-20 01:58N 49°27' E 000°10'0 0.0
2018-Jun-20 01:28N 49°27' E 000°10'0 0.0
2018-Jun-20 00:58N 49°27' E 000°10'0 0.0
2018-Jun-20 00:28N 49°27' E 000°10'0 0.0
2018-Jun-19 23:58N 49°27' E 000°10'0 0.0
2018-Jun-19 23:28N 49°27' E 000°10'0 0.0
2018-Jun-19 22:55N 49°27' E 000°10'0 0.0
2018-Jun-19 22:28N 49°27' E 000°10'0 0.0
2018-Jun-19 21:58N 49°27' E 000°10'0 0.0
2018-Jun-19 21:28N 49°27' E 000°10'0 0.0
2018-Jun-19 20:58N 49°27' E 000°10'0 0.0
2018-Jun-19 20:28N 49°27' E 000°10'0 0.0
2018-Jun-19 19:58N 49°27' E 000°10'0 0.0
2018-Jun-19 19:28N 49°27' E 000°10'0 0.0
2018-Jun-19 18:58N 49°27' E 000°10'0 0.0
2018-Jun-19 18:28N 49°27' E 000°10'0 0.0
2018-Jun-19 17:58N 49°27' E 000°10'0 0.0
2018-Jun-19 17:28N 49°27' E 000°10'0 0.0
2018-Jun-19 16:58N 49°27' E 000°10'0 0.0
2018-Jun-19 16:28N 49°27' E 000°10'0 0.0
2018-Jun-19 15:58N 49°27' E 000°10'0 0.0
2018-Jun-19 15:28N 49°27' E 000°10'0 0.0
2018-Jun-19 14:58N 49°27' E 000°10'0 0.0
2018-Jun-19 14:28N 49°27' E 000°10'0 0.0
2018-Jun-19 13:58N 49°27' E 000°10'0 0.0
2018-Jun-19 13:28N 49°27' E 000°10'0 0.0
2018-Jun-19 12:58N 49°27' E 000°10'0 0.0
2018-Jun-19 12:28N 49°27' E 000°10'0 0.0
2018-Jun-19 11:58N 49°27' E 000°10'0 0.0
2018-Jun-19 11:28N 49°27' E 000°10'0 0.0
2018-Jun-19 11:00N 49°27' E 000°10'1 1.5
2018-Jun-19 10:31N 49°27' E 000°09'4 8.0
2018-Jun-19 10:00N 49°29' E 000°04'613.0
2018-Jun-19 09:30N 49°31' W 000°06'4 7.8
2018-Jun-19 09:00N 49°33' W 000°11'3 6.8
2018-Jun-19 08:30N 49°37' W 000°11'3 6.7
2018-Jun-19 08:00N 49°40' W 000°12'5 9.1
2018-Jun-19 07:30N 49°45' W 000°12'5 9.3
2018-Jun-19 07:00N 49°49' W 000°13'510.0
2018-Jun-19 06:30N 49°54' W 000°12'612.1
2018-Jun-19 06:00N 50°00' W 000°11'612.3
2018-Jun-19 05:30N 50°06' W 000°10'612.2
2018-Jun-19 05:00N 50°12' W 000°09'612.1
2018-Jun-19 04:30N 50°18' W 000°08'712.2
2018-Jun-19 03:58N 50°25' W 000°06'911.9
2018-Jun-19 03:11N 50°29' E 000°07'312.0
2018-Jun-19 02:57N 50°30' E 000°11'511.8
2018-Jun-19 02:30N 50°31' E 000°19'611.5
2018-Jun-19 02:00N 50°33' E 000°27'611.8
2018-Jun-19 01:30N 50°35' E 000°36'611.3
2018-Jun-19 01:00N 50°39' E 000°44'611.6
2018-Jun-19 00:30N 50°42' E 000°51'611.4
2018-Jun-19 00:00N 50°45' E 000°59'611.6
2018-Jun-18 23:30N 50°48' E 001°06'612.3
2018-Jun-18 23:00N 50°52' E 001°14'713.0
2018-Jun-18 22:30N 50°57' E 001°21'713.3
2018-Jun-18 22:00N 51°01' E 001°28'713.0
2018-Jun-18 21:30N 51°06' E 001°35'612.5
2018-Jun-18 21:00N 51°11' E 001°42'612.2
2018-Jun-18 20:30N 51°16' E 001°47'612.6
2018-Jun-18 20:00N 51°21' E 001°53'713.2
2018-Jun-18 19:30N 51°26' E 001°59'612.7
2018-Jun-18 19:00N 51°31' E 002°06'612.3
2018-Jun-18 18:30N 51°36' E 002°12'612.1
2018-Jun-18 18:00N 51°41' E 002°18'611.8
2018-Jun-18 17:30N 51°46' E 002°24'611.8
2018-Jun-18 17:00N 51°50' E 002°30'510.3
2018-Jun-18 16:30N 51°54' E 002°36'510.4
2018-Jun-18 15:59N 51°59' E 002°40'810.6
2018-Jun-18 15:13N 52°02' E 002°52'211.8
2018-Jun-18 15:00N 52°02' E 002°56'612.1
2018-Jun-18 14:30N 52°03' E 003°06'712.5
2018-Jun-18 13:58N 52°03' E 003°17'612.7
2018-Jun-18 13:28N 52°03' E 003°27'613.1
2018-Jun-18 13:00N 52°03' E 003°37'713.0
2018-Jun-18 12:30N 52°03' E 003°48'510.1
2018-Jun-18 12:00N 52°02' E 003°56'713.0
2018-Jun-18 11:30N 51°59' E 004°05'612.3
2018-Jun-18 11:00N 51°56' E 004°13'510.2
2018-Jun-18 10:31N 51°54' E 004°21'3 6.8
2018-Jun-18 10:00N 51°54' E 004°26'0 0.5
2018-Jun-18 09:30N 51°54' E 004°26'0 0.0
2018-Jun-18 09:00N 51°54' E 004°26'0 0.0
2018-Jun-18 08:30N 51°54' E 004°26'0 0.0
2018-Jun-18 08:00N 51°54' E 004°26'0 0.0
2018-Jun-18 07:30N 51°54' E 004°26'0 0.0
2018-Jun-18 07:00N 51°54' E 004°26'0 0.0
2018-Jun-18 06:30N 51°54' E 004°26'0 0.0
2018-Jun-18 06:00N 51°54' E 004°26'0 0.0
2018-Jun-18 05:30N 51°54' E 004°26'0 0.0
2018-Jun-18 05:00N 51°54' E 004°26'0 0.0
2018-Jun-18 04:30N 51°54' E 004°26'0 0.0
2018-Jun-18 04:00N 51°54' E 004°26'0 0.0
2018-Jun-18 03:30N 51°54' E 004°26'0 0.0
2018-Jun-18 03:00N 51°54' E 004°26'0 0.0
2018-Jun-18 02:30N 51°54' E 004°26'0 0.0
2018-Jun-18 02:00N 51°54' E 004°26'0 0.0
2018-Jun-18 01:30N 51°54' E 004°26'0 0.0
2018-Jun-18 01:00N 51°54' E 004°26'0 0.0
2018-Jun-18 00:30N 51°54' E 004°26'0 0.0
2018-Jun-18 00:00N 51°54' E 004°26'0 0.0
2018-Jun-17 23:30N 51°54' E 004°26'0 0.0
2018-Jun-17 23:00N 51°54' E 004°26'0 0.0
2018-Jun-17 22:30N 51°54' E 004°26'0 0.0
2018-Jun-17 22:00N 51°54' E 004°26'0 0.0
2018-Jun-17 21:00N 51°54' E 004°26'0 0.0
2018-Jun-17 20:30N 51°54' E 004°26'0 0.0
2018-Jun-17 20:00N 51°54' E 004°26'0 0.0
2018-Jun-17 19:30N 51°54' E 004°26'0 0.0
2018-Jun-17 19:00N 51°54' E 004°26'0 0.0
2018-Jun-17 18:30N 51°54' E 004°26'0 0.0
2018-Jun-17 18:00N 51°54' E 004°26'0 0.0
2018-Jun-17 17:30N 51°54' E 004°26'0 0.0
2018-Jun-17 17:00N 51°54' E 004°26'0 0.0
2018-Jun-17 16:30N 51°54' E 004°26'0 0.0
2018-Jun-17 16:00N 51°54' E 004°26'0 0.0
2018-Jun-17 15:30N 51°54' E 004°26'0 0.0
2018-Jun-17 15:00N 51°54' E 004°26'0 0.0
2018-Jun-17 14:30N 51°54' E 004°26'0 0.0
2018-Jun-17 14:00N 51°54' E 004°26'0 0.0
2018-Jun-17 13:30N 51°54' E 004°26'0 0.0
2018-Jun-17 13:00N 51°54' E 004°26'0 0.0
2018-Jun-17 12:30N 51°54' E 004°26'0 0.0
2018-Jun-17 12:00N 51°54' E 004°26'0 0.0
2018-Jun-17 11:30N 51°54' E 004°26'0 0.0
2018-Jun-17 11:00N 51°54' E 004°26'0 0.0
2018-Jun-17 10:30N 51°54' E 004°26'0 0.0
2018-Jun-17 10:00N 51°54' E 004°26'0 0.0
2018-Jun-17 09:30N 51°54' E 004°26'0 0.0
2018-Jun-17 09:00N 51°54' E 004°26'0 0.0
2018-Jun-17 08:30N 51°54' E 004°26'1 1.0
2018-Jun-17 08:00N 51°54' E 004°26'4 7.8
2018-Jun-17 07:30N 51°54' E 004°20'510.0
2018-Jun-17 07:00N 51°56' E 004°13'611.5
2018-Jun-17 06:30N 51°59' E 004°05'713.6
2018-Jun-17 06:01N 51°60' E 003°54'510.5
2018-Jun-17 05:30N 51°59' E 003°45'4 7.1
2018-Jun-17 05:00N 51°58' E 003°40'4 7.3
2018-Jun-17 04:30N 51°57' E 003°34'510.3
2018-Jun-17 04:00N 51°55' E 003°26'611.7
2018-Jun-17 03:30N 51°54' E 003°17'714.6
2018-Jun-17 03:00N 51°52' E 003°06'1115.2
2018-Jun-17 02:16N 51°49' E 002°48'517.1
2018-Jun-17 02:00N 51°49' E 002°41'918.3
2018-Jun-17 01:29N 51°50' E 002°26'1018.6
2018-Jun-17 00:58N 51°46' E 002°12'918.0
2018-Jun-17 00:30N 51°41' E 002°01'918.2
2018-Jun-17 00:01N 51°35' E 001°49'917.4
2018-Jun-16 23:31N 51°31' E 001°38'714.3
2018-Jun-16 23:01N 51°26' E 001°29'510.6
2018-Jun-16 22:30N 51°31' E 001°27'612.3
2018-Jun-16 22:00N 51°36' E 001°21'611.3
2018-Jun-16 21:30N 51°34' E 001°12'917.1
2018-Jun-16 21:00N 51°30' E 001°01'917.3
2018-Jun-16 20:31N 51°29' E 000°47'815.9
2018-Jun-16 20:01N 51°30' E 000°34'2 4.9
2018-Jun-16 19:31N 51°30' E 000°30'0 0.0
2018-Jun-16 19:01N 51°30' E 000°30'0 0.0
2018-Jun-16 18:31N 51°30' E 000°30'0 0.0
2018-Jun-16 18:01N 51°30' E 000°30'0 0.0
2018-Jun-16 17:30N 51°30' E 000°30'0 0.0
2018-Jun-16 17:01N 51°30' E 000°30'0 0.0
2018-Jun-16 16:31N 51°30' E 000°30'0 0.0
2018-Jun-16 16:00N 51°30' E 000°30'0 0.0
2018-Jun-16 15:31N 51°30' E 000°30'0 0.0
2018-Jun-16 15:01N 51°30' E 000°30'0 0.0
2018-Jun-16 14:31N 51°30' E 000°30'0 0.0
2018-Jun-16 14:01N 51°30' E 000°30'0 0.0
2018-Jun-16 13:31N 51°30' E 000°30'0 0.0
2018-Jun-16 13:01N 51°30' E 000°30'0 0.0
2018-Jun-16 12:30N 51°30' E 000°30'0 0.0
2018-Jun-16 12:00N 51°30' E 000°30'0 0.0
2018-Jun-16 11:30N 51°30' E 000°30'0 0.0
2018-Jun-16 11:00N 51°30' E 000°30'0 0.7
2018-Jun-16 10:30N 51°30' E 000°31'510.1
2018-Jun-16 10:00N 51°30' E 000°39'816.3
2018-Jun-16 09:31N 51°30' E 000°52'917.3
2018-Jun-16 09:01N 51°31' E 001°05'917.6
2018-Jun-16 08:30N 51°36' E 001°18'4 8.4
2018-Jun-16 08:00N 51°34' E 001°24'510.2
2018-Jun-16 07:30N 51°30' E 001°28'611.7
2018-Jun-16 07:00N 51°25' E 001°31'5 9.6
2018-Jun-16 06:30N 51°21' E 001°35'510.8
2018-Jun-16 06:00N 51°16' E 001°39'1 2.7
2018-Jun-16 05:30N 51°15' E 001°41'1 1.3
2018-Jun-16 05:00N 51°16' E 001°41'1 1.1
2018-Jun-16 04:30N 51°15' E 001°41'1 2.4
2018-Jun-16 04:00N 51°16' E 001°39'1 3.0
2018-Jun-16 03:30N 51°17' E 001°39'1 2.8
2018-Jun-16 03:00N 51°19' E 001°40'2 3.5
2018-Jun-16 02:30N 51°17' E 001°39'2 4.8
2018-Jun-16 02:00N 51°15' E 001°39'3 6.0
2018-Jun-16 01:30N 51°12' E 001°40'3 5.5
2018-Jun-16 01:00N 51°10' E 001°43'3 6.1
2018-Jun-16 00:30N 51°07' E 001°41'4 8.5
2018-Jun-16 00:00N 51°04' E 001°36'4 8.4
2018-Jun-15 23:30N 51°01' E 001°32'3 6.4
2018-Jun-15 23:00N 50°58' E 001°28'3 5.5
2018-Jun-15 22:30N 50°57' E 001°25'611.4
2018-Jun-15 22:01N 50°51' E 001°22'815.2
2018-Jun-15 21:31N 50°44' E 001°20'816.2
2018-Jun-15 21:00N 50°38' E 001°11'816.2
2018-Jun-15 20:30N 50°33' E 001°02'816.2
2018-Jun-15 20:00N 50°29' E 000°50'917.0
2018-Jun-15 19:29N 50°27' E 000°37'816.7
2018-Jun-15 19:00N 50°25' E 000°24'816.4
2018-Jun-15 18:30N 50°23' E 000°12'816.1
2018-Jun-15 18:01N 50°21' W 000°00'816.0
2018-Jun-15 17:30N 50°19' W 000°13'816.7
2018-Jun-15 17:01N 50°17' W 000°25'816.9
2018-Jun-15 16:30N 50°15' W 000°38'816.3
2018-Jun-15 16:00N 50°12' W 000°50'815.9
2018-Jun-15 15:30N 50°10' W 001°02'815.6
2018-Jun-15 15:00N 50°08' W 001°14'815.2
2018-Jun-15 14:30N 50°06' W 001°25'612.5
2018-Jun-15 14:00N 50°03' W 001°34'510.2
2018-Jun-15 13:30N 50°02' W 001°41'714.2
2018-Jun-15 13:00N 50°00' W 001°52'815.1
2018-Jun-15 12:30N 49°58' W 002°04'815.2
2018-Jun-15 12:00N 49°56' W 002°15'815.4
2018-Jun-15 11:30N 49°53' W 002°26'815.6
2018-Jun-15 11:00N 49°50' W 002°37'915.6
2018-Jun-15 10:24N 49°48' W 002°51'615.4
2018-Jun-15 10:00N 49°46' W 003°00'815.6
2018-Jun-15 09:30N 49°42' W 003°11'915.6
2018-Jun-15 08:57N 49°38' W 003°22'7715.8
2018-Jun-15 04:05N 48°59' W 005°04'117.3
2018-Jun-15 04:00N 48°59' W 005°06'917.2
2018-Jun-15 03:30N 48°55' W 005°18'917.0
2018-Jun-15 03:00N 48°50' W 005°28'5116.5
2018-Jun-14 23:53N 48°05' W 006°06'717.8
2018-Jun-14 23:30N 47°59' W 006°10'44318.2
2018-Jun-13 23:10N 41°04' W 009°49'10317.5
2018-Jun-13 17:16N 39°21' W 009°51'417.7
2018-Jun-13 17:00N 39°16' W 009°52'917.6
2018-Jun-13 16:30N 39°08' W 009°52'917.6
2018-Jun-13 16:00N 38°59' W 009°52'917.6
2018-Jun-13 15:30N 38°50' W 009°52'917.5
2018-Jun-13 15:00N 38°41' W 009°50'917.1
2018-Jun-13 14:30N 38°33' W 009°49'816.8
2018-Jun-13 14:00N 38°25' W 009°46'817.0
2018-Jun-13 13:30N 38°17' W 009°42'917.2
2018-Jun-13 13:00N 38°09' W 009°39'917.3
2018-Jun-13 12:30N 38°00' W 009°36'917.6
2018-Jun-13 12:00N 37°52' W 009°35'917.9
2018-Jun-13 11:30N 37°43' W 009°33'1618.0
2018-Jun-13 10:38N 37°28' W 009°28'717.4
2018-Jun-13 10:14N 37°21' W 009°26'1017.7
2018-Jun-13 09:41N 37°11' W 009°23'717.5
2018-Jun-13 09:18N 37°05' W 009°22'617.0
2018-Jun-13 08:57N 36°59' W 009°21'2716.6
2018-Jun-13 07:20N 36°41' W 008°55'718.0
2018-Jun-13 06:58N 36°39' W 008°48'1218.2
2018-Jun-13 06:19N 36°36' W 008°33'1318.2
2018-Jun-13 05:35N 36°32' W 008°18'218.2
2018-Jun-13 05:30N 36°31' W 008°16'13518.3
2018-Jun-12 22:06N 35°57' W 005°33'217.3
2018-Jun-12 22:00N 35°58' W 005°32'815.5
2018-Jun-12 21:30N 36°03' W 005°24'5 9.2
2018-Jun-12 21:00N 36°07' W 005°25'1 1.1
2018-Jun-12 20:30N 36°08' W 005°25'0 0.0
2018-Jun-12 19:57N 36°08' W 005°25'0 0.0
2018-Jun-12 19:30N 36°08' W 005°25'0 0.0
2018-Jun-12 18:57N 36°08' W 005°25'0 0.0
2018-Jun-12 18:30N 36°08' W 005°25'0 0.0
2018-Jun-12 18:00N 36°08' W 005°25'0 0.0
2018-Jun-12 17:30N 36°08' W 005°25'0 0.0
2018-Jun-12 17:00N 36°08' W 005°25'0 0.0
2018-Jun-12 16:30N 36°08' W 005°25'0 0.0
2018-Jun-12 16:00N 36°08' W 005°25'0 0.0
2018-Jun-12 15:27N 36°08' W 005°25'0 0.0
2018-Jun-12 15:00N 36°08' W 005°25'0 0.0
2018-Jun-12 14:30N 36°08' W 005°25'0 0.0
2018-Jun-12 13:57N 36°08' W 005°25'0 0.0
2018-Jun-12 13:30N 36°08' W 005°25'0 0.0
2018-Jun-12 13:00N 36°08' W 005°25'0 0.0
2018-Jun-12 12:24N 36°08' W 005°25'0 0.0
2018-Jun-12 12:00N 36°08' W 005°25'2 2.0
2018-Jun-12 10:46N 36°07' W 005°23'3 9.9
2018-Jun-12 10:31N 36°05' W 005°21'611.1
2018-Jun-12 10:00N 35°59' W 005°22'  

Dump ship's entire track history